Tulip, Indiana
Current Conditions -  °F | °C
As of 4:53 AM on Monday 22 Dec 2014 (Local Time) from KBMG Reporting Station
Overcast Overcast  
Wind Chill: 24°   Ceiling: 3300
Heat Index: 31°   Visibility: 9mi
Dew Point: 27°   Wind: 7mph
Humidity: 85%   Direction: 130°SE
Pressure: 29.97"   Gusts: NA
Location:  39.0306°N, 86.8553°W
Report Text: KBMG 220953Z AUTO 13006KT 9SM BKN033 OVC080 M01/M03 A2997 RMK AO2 SLP154 T10061028
Loading
Personal Weather Stations






























Interactive Weather Map New forecast layout! Learn more

10-Day Weather Forecast

Advertisements
Track Severe Weather on mobile